createdAt,value
2023-03-04T00:00:36.773Z,0.95
2023-03-04T00:01:39.876Z,0.93
2023-03-04T00:02:42.750Z,0.91
2023-03-04T00:03:44.506Z,0.90
2023-03-04T00:04:47.254Z,0.88
2023-03-04T00:05:49.216Z,0.86
2023-03-04T00:06:51.946Z,0.84
2023-03-04T00:07:53.768Z,0.82
2023-03-04T00:08:56.539Z,0.81
2023-03-04T00:09:58.267Z,0.79
2023-03-04T00:11:00.902Z,0.79
2023-03-04T00:12:02.659Z,0.78
2023-03-04T00:13:05.627Z,0.77
2023-03-04T00:14:07.429Z,0.75
2023-03-04T00:15:10.874Z,0.74
2023-03-04T00:16:12.713Z,0.72
2023-03-04T00:17:16.851Z,0.74
2023-03-04T00:18:18.818Z,0.71
2023-03-04T00:19:21.494Z,0.69
2023-03-04T00:20:23.215Z,0.69
2023-03-04T00:21:26.126Z,0.67
2023-03-04T00:22:28.880Z,0.64
2023-03-04T00:23:30.594Z,0.60
2023-03-04T00:24:33.434Z,0.55
2023-03-04T00:25:35.167Z,0.50
2023-03-04T00:26:37.821Z,0.47
2023-03-04T00:27:39.485Z,0.43
2023-03-04T00:28:44.659Z,0.41
2023-03-04T00:29:46.396Z,0.39
2023-03-04T00:30:49.189Z,0.38
2023-03-04T00:31:50.918Z,0.36
2023-03-04T00:32:55.127Z,0.34
2023-03-04T00:33:56.859Z,0.32
2023-03-04T00:34:59.601Z,0.31
2023-03-04T00:36:01.744Z,0.28
2023-03-04T00:37:05.677Z,0.27
2023-03-04T00:38:07.805Z,0.27
2023-03-04T00:39:10.474Z,0.25
2023-03-04T00:40:13.050Z,0.25
2023-03-04T00:41:15.835Z,0.26
2023-03-04T00:42:17.611Z,0.26
2023-03-04T00:43:20.413Z,0.26
2023-03-04T00:44:22.230Z,0.26
2023-03-04T00:45:24.917Z,0.25
2023-03-04T00:46:26.662Z,0.25
2023-03-04T00:47:29.410Z,0.25
2023-03-04T00:48:32.493Z,0.24
2023-03-04T00:49:35.244Z,0.24
2023-03-04T00:50:37.478Z,0.22
2023-03-04T00:51:40.175Z,0.21
2023-03-04T00:52:41.897Z,0.20
2023-03-04T00:53:44.610Z,0.19
2023-03-04T00:54:46.355Z,0.17
2023-03-04T00:55:49.157Z,0.17
2023-03-04T00:56:50.919Z,0.15
2023-03-04T00:57:53.598Z,0.15
2023-03-04T00:58:55.388Z,0.13
2023-03-04T00:59:58.146Z,0.13
2023-03-04T01:00:59.967Z,0.09
2023-03-04T01:02:02.841Z,0.09
2023-03-04T01:03:04.899Z,0.07
2023-03-04T01:04:08.953Z,0.06
2023-03-04T01:05:11.177Z,0.05
2023-03-04T01:06:16.037Z,0.05
2023-03-04T01:07:17.771Z,0.03
2023-03-04T01:08:20.655Z,0.02
2023-03-04T01:09:22.380Z,0.00
2023-03-04T01:11:27.840Z,-0.03
2023-03-04T01:12:29.629Z,-0.04
2023-03-04T01:13:32.393Z,-0.07
2023-03-04T01:14:34.064Z,-0.08
2023-03-04T01:15:36.722Z,-0.08
2023-03-04T01:16:38.480Z,-0.10
2023-03-04T01:17:41.459Z,-0.12
2023-03-04T01:18:43.349Z,-0.15
2023-03-04T01:19:47.478Z,-0.17
2023-03-04T01:20:49.164Z,-0.19
2023-03-04T01:21:51.943Z,-0.21
2023-03-04T01:22:53.660Z,-0.21
2023-03-04T01:23:56.405Z,-0.23
2023-03-04T01:24:58.086Z,-0.24
2023-03-04T01:26:00.760Z,-0.24
2023-03-04T01:27:02.542Z,-0.25
2023-03-04T01:28:05.526Z,-0.25
2023-03-04T01:29:07.536Z,-0.26
2023-03-04T01:30:11.966Z,-0.27
2023-03-04T01:31:13.715Z,-0.28
2023-03-04T01:32:16.577Z,-0.28
2023-03-04T01:33:18.347Z,-0.28
2023-03-04T01:34:21.002Z,-0.29
2023-03-04T01:35:24.129Z,-0.32
2023-03-04T01:36:26.896Z,-0.34
2023-03-04T01:37:28.587Z,-0.36
2023-03-04T01:38:31.299Z,-0.39
2023-03-04T01:39:32.988Z,-0.42
2023-03-04T01:40:35.775Z,-0.44
2023-03-04T01:41:37.458Z,-0.46
2023-03-04T01:42:40.285Z,-0.49
2023-03-04T01:43:42.034Z,-0.50
2023-03-04T01:44:45.227Z,-0.54
2023-03-04T01:45:47.745Z,-0.56
2023-03-04T01:46:52.996Z,-0.59
2023-03-04T01:47:54.701Z,-0.61
2023-03-04T01:48:57.573Z,-0.61
2023-03-04T01:50:01.919Z,-0.64
2023-03-04T01:51:06.793Z,-0.65
2023-03-04T01:52:11.001Z,-0.66
2023-03-04T01:53:19.200Z,-0.66
2023-03-04T01:54:22.402Z,-0.65
2023-03-04T01:55:25.522Z,-0.65
2023-03-04T01:56:29.492Z,-0.65
2023-03-04T01:57:36.390Z,-0.64
2023-03-04T01:58:38.059Z,-0.62
2023-03-04T01:59:42.395Z,-0.60
2023-03-04T02:00:44.627Z,-0.59
2023-03-04T02:01:48.990Z,-0.58
2023-03-04T02:02:54.487Z,-0.58
2023-03-04T02:03:57.293Z,-0.56
2023-03-04T02:04:59.010Z,-0.56
2023-03-04T02:06:01.688Z,-0.55
2023-03-04T02:07:05.359Z,-0.55
2023-03-04T02:08:08.374Z,-0.55
2023-03-04T02:09:10.260Z,-0.54
2023-03-04T02:10:13.773Z,-0.53
2023-03-04T02:11:15.821Z,-0.53
2023-03-04T02:12:18.683Z,-0.51
2023-03-04T02:13:20.652Z,-0.52
2023-03-04T02:14:23.857Z,-0.52
2023-03-04T02:15:25.794Z,-0.51
2023-03-04T02:16:29.072Z,-0.51
2023-03-04T02:17:32.444Z,-0.51
2023-03-04T02:18:35.089Z,-0.51
2023-03-04T02:19:42.303Z,-0.55
2023-03-04T02:20:52.647Z,-0.58
2023-03-04T02:21:54.383Z,-0.63
2023-03-04T02:23:06.316Z,-0.70
2023-03-04T02:24:15.222Z,-0.76
2023-03-04T02:25:20.338Z,-0.80
2023-03-04T02:26:24.444Z,-0.84
2023-03-04T02:27:27.079Z,-0.86
2023-03-04T02:28:28.855Z,-0.84
2023-03-04T02:29:31.538Z,-0.85
2023-03-04T02:30:33.358Z,-0.84
2023-03-04T02:31:37.870Z,-0.82
2023-03-04T02:32:39.709Z,-0.81
2023-03-04T02:33:42.347Z,-0.80
2023-03-04T02:34:48.632Z,-0.79
2023-03-04T02:35:50.461Z,-0.77
2023-03-04T02:36:54.261Z,-0.76
2023-03-04T02:37:55.981Z,-0.73
2023-03-04T02:39:04.088Z,-0.72
2023-03-04T02:40:07.408Z,-0.72
2023-03-04T02:41:14.226Z,-0.68
2023-03-04T02:42:18.437Z,-0.66
2023-03-04T02:43:21.142Z,-0.65
2023-03-04T02:44:25.224Z,-0.63
2023-03-04T02:45:40.533Z,-0.59
2023-03-04T02:46:42.315Z,-0.57
2023-03-04T02:47:45.026Z,-0.56
2023-03-04T02:48:46.702Z,-0.52
2023-03-04T02:49:49.406Z,-0.50
2023-03-04T02:50:52.887Z,-0.47
2023-03-04T02:52:02.120Z,-0.44
2023-03-04T02:53:04.266Z,-0.44
2023-03-04T02:54:15.899Z,-0.40
2023-03-04T02:55:17.607Z,-0.40
2023-03-04T02:56:20.395Z,-0.38
2023-03-04T02:57:23.463Z,-0.34
2023-03-04T02:58:26.154Z,-0.31
2023-03-04T02:59:28.464Z,-0.29
2023-03-04T03:00:31.503Z,-0.28
2023-03-04T03:01:33.180Z,-0.25
2023-03-04T03:02:35.913Z,-0.22
2023-03-04T03:03:37.638Z,-0.20
2023-03-04T03:04:41.191Z,-0.18
2023-03-04T03:05:42.905Z,-0.14
2023-03-04T03:06:45.883Z,-0.14
2023-03-04T03:07:47.589Z,-0.11
2023-03-04T03:08:50.269Z,-0.08
2023-03-04T03:09:52.037Z,-0.06
2023-03-04T03:10:54.771Z,-0.05
2023-03-04T03:11:56.460Z,-0.02
2023-03-04T03:13:00.618Z,-0.00
2023-03-04T03:14:02.629Z,0.01
2023-03-04T03:15:05.989Z,0.03
2023-03-04T03:16:08.690Z,0.05
2023-03-04T03:17:10.557Z,0.08
2023-03-04T03:18:13.842Z,0.10
2023-03-04T03:19:15.590Z,0.12
2023-03-04T03:20:19.225Z,0.13
2023-03-04T03:21:20.911Z,0.15
2023-03-04T03:22:23.605Z,0.18
2023-03-04T03:23:25.311Z,0.21
2023-03-04T03:24:28.035Z,0.21
2023-03-04T03:25:29.743Z,0.24
2023-03-04T03:26:32.449Z,0.26
2023-03-04T03:27:34.179Z,0.28
2023-03-04T03:28:38.337Z,0.30
2023-03-04T03:29:40.057Z,0.31
2023-03-04T03:30:42.729Z,0.33
2023-03-04T03:31:44.471Z,0.34
2023-03-04T03:32:47.197Z,0.37
2023-03-04T03:33:48.948Z,0.38
2023-03-04T03:34:51.913Z,0.40
2023-03-04T03:35:53.663Z,0.43
2023-03-04T03:36:56.382Z,0.44
2023-03-04T03:37:58.059Z,0.46
2023-03-04T03:39:00.707Z,0.47
2023-03-04T03:40:02.409Z,0.50
2023-03-04T03:41:05.276Z,0.50
2023-03-04T03:42:07.094Z,0.53
2023-03-04T03:43:09.768Z,0.54
2023-03-04T03:44:12.800Z,0.55
2023-03-04T03:45:15.514Z,0.55
2023-03-04T03:46:17.205Z,0.53
2023-03-04T03:47:19.928Z,0.52
2023-03-04T03:48:21.612Z,0.52
2023-03-04T03:49:24.338Z,0.52
2023-03-04T03:50:26.031Z,0.53
2023-03-04T03:51:28.697Z,0.53
2023-03-04T03:52:30.463Z,0.55
2023-03-04T03:53:33.207Z,0.55
2023-03-04T03:54:34.903Z,0.57
2023-03-04T03:55:37.800Z,0.57
2023-03-04T03:56:39.513Z,0.60
2023-03-04T03:57:42.201Z,0.61
2023-03-04T03:58:43.969Z,0.61
2023-03-04T03:59:47.990Z,0.62
2023-03-04T04:00:49.713Z,0.65
2023-03-04T04:01:52.458Z,0.65
2023-03-04T04:02:55.157Z,0.66
2023-03-04T04:03:57.893Z,0.63
2023-03-04T04:04:59.653Z,0.59
2023-03-04T04:06:02.434Z,0.51
2023-03-04T04:07:04.146Z,0.44
2023-03-04T04:08:06.943Z,0.36
2023-03-04T04:09:08.659Z,0.26
2023-03-04T04:10:12.342Z,0.21
2023-03-04T04:11:14.105Z,0.16
2023-03-04T04:12:19.943Z,0.11
2023-03-04T04:13:21.704Z,0.07
2023-03-04T04:14:24.471Z,0.02
2023-03-04T04:15:27.477Z,0.00
2023-03-04T04:16:30.180Z,-0.04
2023-03-04T04:17:31.884Z,-0.04
2023-03-04T04:18:34.579Z,-0.03
2023-03-04T04:19:36.376Z,-0.03
2023-03-04T04:20:39.187Z,-0.01
2023-03-04T04:21:40.877Z,-0.02
2023-03-04T04:22:43.672Z,-0.01
2023-03-04T04:23:45.391Z,0.02
2023-03-04T04:24:48.842Z,0.05
2023-03-04T04:25:50.576Z,0.08
2023-03-04T04:26:53.246Z,0.12
2023-03-04T04:27:55.055Z,0.15
2023-03-04T04:28:57.726Z,0.19
2023-03-04T04:29:59.528Z,0.22
2023-03-04T04:31:03.715Z,0.27
2023-03-04T04:32:06.120Z,0.31
2023-03-04T04:33:08.875Z,0.35
2023-03-04T04:34:10.567Z,0.38
2023-03-04T04:35:13.290Z,0.40
2023-03-04T04:36:16.256Z,0.42
2023-03-04T04:37:18.962Z,0.43
2023-03-04T04:38:20.616Z,0.43
2023-03-04T04:39:23.382Z,0.44
2023-03-04T04:40:25.096Z,0.46
2023-03-04T04:41:31.758Z,0.48
2023-03-04T04:42:33.577Z,0.50
2023-03-04T04:43:36.248Z,0.53
2023-03-04T04:44:39.808Z,0.54
2023-03-04T04:45:42.822Z,0.47
2023-03-04T04:46:45.989Z,0.51
2023-03-04T04:47:48.714Z,0.50
2023-03-04T04:48:50.420Z,0.51
2023-03-04T04:49:53.195Z,0.48
2023-03-04T04:50:56.230Z,0.46
2023-03-04T04:51:58.894Z,0.46
2023-03-04T04:53:00.716Z,0.43
2023-03-04T04:54:03.993Z,0.45
2023-03-04T04:55:06.607Z,0.46
2023-03-04T04:56:11.427Z,0.45
2023-03-04T04:57:13.101Z,0.46
2023-03-04T04:58:15.729Z,0.48
2023-03-04T04:59:17.478Z,0.46
2023-03-04T05:00:20.724Z,0.49
2023-03-04T05:01:22.539Z,0.50
2023-03-04T05:02:26.704Z,0.50
2023-03-04T05:03:28.424Z,0.50
2023-03-04T05:04:31.114Z,0.49
2023-03-04T05:05:32.810Z,0.48
2023-03-04T05:06:35.526Z,0.49
2023-03-04T05:07:37.293Z,0.49
2023-03-04T05:08:40.172Z,0.51
2023-03-04T05:09:41.917Z,0.54
2023-03-04T05:10:44.595Z,0.55
2023-03-04T05:11:46.381Z,0.60
2023-03-04T05:12:49.792Z,0.62
2023-03-04T05:13:51.676Z,0.63
2023-03-04T05:14:54.470Z,0.65
2023-03-04T05:15:56.783Z,0.67
2023-03-04T05:16:59.464Z,0.70
2023-03-04T05:18:02.544Z,0.72
2023-03-04T05:19:05.261Z,0.74
2023-03-04T05:20:08.084Z,0.74
2023-03-04T05:21:11.276Z,0.73
2023-03-04T05:22:12.966Z,0.70
2023-03-04T05:23:15.681Z,0.66
2023-03-04T05:24:17.615Z,0.62
2023-03-04T05:25:20.412Z,0.62
2023-03-04T05:26:22.232Z,0.62
2023-03-04T05:27:25.042Z,0.57
2023-03-04T05:28:27.192Z,0.56
2023-03-04T05:29:29.899Z,0.54
2023-03-04T05:30:31.603Z,0.54
2023-03-04T05:31:34.524Z,0.56
2023-03-04T05:32:36.215Z,0.54
2023-03-04T05:33:40.654Z,0.55
2023-03-04T05:34:42.468Z,0.53
2023-03-04T05:35:46.148Z,0.55
2023-03-04T05:36:47.945Z,0.53
2023-03-04T05:37:50.653Z,0.52
2023-03-04T05:38:52.350Z,0.51
2023-03-04T05:39:55.056Z,0.52
2023-03-04T05:40:58.486Z,0.55
2023-03-04T05:42:01.210Z,0.57
2023-03-04T05:43:03.068Z,0.61
2023-03-04T05:44:06.164Z,0.64
2023-03-04T05:45:08.880Z,0.67
2023-03-04T05:46:16.122Z,0.70
2023-03-04T05:47:17.887Z,0.71
2023-03-04T05:48:20.731Z,0.75
2023-03-04T05:49:23.827Z,0.77
2023-03-04T05:50:26.639Z,0.80
2023-03-04T05:51:28.387Z,0.80
2023-03-04T05:52:31.064Z,0.77
2023-03-04T05:53:32.878Z,0.76
2023-03-04T05:54:35.782Z,0.76
2023-03-04T05:55:37.572Z,0.72
2023-03-04T05:56:40.263Z,0.70
2023-03-04T05:57:42.155Z,0.71
2023-03-04T05:58:47.418Z,0.68
2023-03-04T05:59:49.204Z,0.62
2023-03-04T06:00:51.847Z,0.62
2023-03-04T06:01:53.617Z,0.62
2023-03-04T06:02:56.390Z,0.61
2023-03-04T06:03:58.115Z,0.62
2023-03-04T06:05:02.235Z,0.65
2023-03-04T06:06:05.307Z,0.67
2023-03-04T06:07:07.965Z,0.71
2023-03-04T06:08:09.864Z,0.76
2023-03-04T06:09:12.558Z,0.79
2023-03-04T06:10:16.037Z,0.83
2023-03-04T06:11:18.798Z,0.86
2023-03-04T06:12:20.490Z,0.90
2023-03-04T06:13:23.446Z,0.92
2023-03-04T06:14:25.238Z,0.93
2023-03-04T06:15:28.011Z,0.95
2023-03-04T06:16:30.854Z,0.96
2023-03-04T06:17:33.816Z,0.97
2023-03-04T06:18:35.558Z,0.95
2023-03-04T06:19:38.907Z,0.97
2023-03-04T06:20:42.073Z,0.96
2023-03-04T06:21:44.783Z,0.95
2023-03-04T06:22:46.473Z,0.97
2023-03-04T06:23:49.252Z,0.97
2023-03-04T06:24:51.005Z,1.00
2023-03-04T06:25:54.754Z,1.03
2023-03-04T06:26:56.442Z,1.05
2023-03-04T06:27:59.233Z,1.08
2023-03-04T06:29:00.954Z,1.11
2023-03-04T06:30:03.876Z,1.13
2023-03-04T06:31:05.753Z,1.16
2023-03-04T06:32:08.515Z,1.17
2023-03-04T06:33:10.290Z,1.20
2023-03-04T06:34:12.950Z,1.21
2023-03-04T06:35:16.270Z,1.22
2023-03-04T06:36:20.533Z,1.23
2023-03-04T06:37:22.278Z,1.24
2023-03-04T06:38:25.044Z,1.22
2023-03-04T06:39:26.786Z,1.22
2023-03-04T06:40:29.422Z,1.22
2023-03-04T06:41:31.386Z,1.24
2023-03-04T06:42:34.162Z,1.24
2023-03-04T06:43:36.055Z,1.27
2023-03-04T06:44:38.846Z,1.30
2023-03-04T06:45:40.608Z,1.33
2023-03-04T06:46:43.435Z,1.35
2023-03-04T06:47:46.152Z,1.37
2023-03-04T06:48:47.883Z,1.38
2023-03-04T06:49:50.603Z,1.39
2023-03-04T06:50:52.297Z,1.41
2023-03-04T06:51:56.373Z,1.42
2023-03-04T06:52:58.138Z,1.42
2023-03-04T06:54:00.969Z,1.43
2023-03-04T06:55:02.731Z,1.44
2023-03-04T06:56:06.022Z,1.44
2023-03-04T06:57:07.802Z,1.45
2023-03-04T06:58:10.547Z,1.46
2023-03-04T06:59:12.233Z,1.49
2023-03-04T07:00:16.457Z,1.52
2023-03-04T07:01:19.789Z,1.54
2023-03-04T07:02:22.532Z,1.54
2023-03-04T07:03:24.214Z,1.55
2023-03-04T07:04:27.003Z,1.55
2023-03-04T07:05:28.866Z,1.56
2023-03-04T07:06:31.693Z,1.55
2023-03-04T07:07:35.723Z,1.55
2023-03-04T07:08:37.786Z,1.56
2023-03-04T07:09:40.813Z,1.57
2023-03-04T07:10:42.498Z,1.62
2023-03-04T07:11:45.449Z,1.65
2023-03-04T07:12:47.379Z,1.69
2023-03-04T07:13:50.423Z,1.73
2023-03-04T07:14:52.158Z,1.71
2023-03-04T07:15:54.822Z,1.68
2023-03-04T07:16:56.710Z,1.66
2023-03-04T07:17:59.412Z,1.64
2023-03-04T07:19:01.166Z,1.65
2023-03-04T07:20:04.399Z,1.66
2023-03-04T07:21:07.051Z,1.69
2023-03-04T07:22:09.965Z,1.69
2023-03-04T07:23:13.073Z,1.71
2023-03-04T07:24:15.772Z,1.73
2023-03-04T07:25:19.148Z,1.76
2023-03-04T07:26:20.899Z,1.78
2023-03-04T07:27:23.679Z,1.80
2023-03-04T07:28:25.398Z,1.82
2023-03-04T07:29:28.170Z,1.83
2023-03-04T07:30:30.402Z,1.81
2023-03-04T07:31:34.474Z,1.75
2023-03-04T07:32:36.408Z,1.66
2023-03-04T07:33:39.161Z,1.63
2023-03-04T07:34:41.789Z,1.61
2023-03-04T07:35:43.613Z,1.62
2023-03-04T07:36:46.351Z,1.63
2023-03-04T07:37:48.158Z,1.65
2023-03-04T07:38:54.694Z,1.67
2023-03-04T07:39:56.385Z,1.71
2023-03-04T07:40:59.684Z,1.74
2023-03-04T07:42:02.385Z,1.79
2023-03-04T07:43:04.651Z,1.83
2023-03-04T07:44:08.322Z,1.87
2023-03-04T07:45:13.410Z,1.93
2023-03-04T07:46:16.585Z,1.92
2023-03-04T07:47:18.343Z,1.91
2023-03-04T07:48:21.013Z,1.90
2023-03-04T07:49:23.680Z,1.83
2023-03-04T07:50:25.596Z,1.84
2023-03-04T07:51:29.278Z,1.84
2023-03-04T07:52:31.021Z,1.84
2023-03-04T07:53:34.186Z,1.87
2023-03-04T07:54:38.286Z,1.91
2023-03-04T07:55:40.016Z,1.91
2023-03-04T07:56:42.851Z,1.95
2023-03-04T07:57:45.672Z,2.00
2023-03-04T07:58:48.556Z,2.03
2023-03-04T07:59:50.222Z,2.08
2023-03-04T08:00:52.974Z,2.13
2023-03-04T08:01:54.689Z,2.17
2023-03-04T08:02:57.327Z,2.18
2023-03-04T08:04:00.706Z,2.21
2023-03-04T08:05:02.547Z,2.26
2023-03-04T08:06:06.656Z,2.30
2023-03-04T08:07:08.808Z,2.33
2023-03-04T08:08:11.779Z,2.36
2023-03-04T08:09:14.577Z,2.38
2023-03-04T08:10:18.556Z,2.43
2023-03-04T08:11:22.907Z,2.48
2023-03-04T08:12:25.298Z,2.52
2023-03-04T08:13:28.674Z,2.60
2023-03-04T08:14:31.385Z,2.64
2023-03-04T08:15:35.165Z,2.68
2023-03-04T08:16:37.922Z,2.72
2023-03-04T08:17:39.634Z,2.76
2023-03-04T08:18:43.745Z,2.80
2023-03-04T08:19:46.713Z,2.77
2023-03-04T08:20:48.435Z,2.74
2023-03-04T08:21:51.151Z,2.75
2023-03-04T08:22:52.923Z,2.78
2023-03-04T08:23:56.240Z,2.82
2023-03-04T08:24:57.963Z,2.90
2023-03-04T08:26:07.513Z,2.96
2023-03-04T08:27:09.225Z,3.01
2023-03-04T08:28:13.296Z,3.07
2023-03-04T08:29:17.692Z,3.12
2023-03-04T08:30:19.571Z,3.13
2023-03-04T08:31:22.733Z,3.11
2023-03-04T08:32:24.543Z,3.09
2023-03-04T08:33:27.326Z,3.11
2023-03-04T08:34:30.287Z,3.14
2023-03-04T08:35:32.124Z,3.20
2023-03-04T08:36:34.836Z,3.25
2023-03-04T08:37:36.727Z,3.31
2023-03-04T08:38:39.516Z,3.40
2023-03-04T08:39:42.325Z,3.43
2023-03-04T08:40:44.049Z,3.51
2023-03-04T08:41:48.641Z,3.56
2023-03-04T08:42:50.315Z,3.61
2023-03-04T08:43:52.969Z,3.67
2023-03-04T08:44:54.761Z,3.71
2023-03-04T08:45:57.630Z,3.79
2023-03-04T08:47:00.330Z,3.80
2023-03-04T08:48:02.197Z,3.84
2023-03-04T08:49:05.168Z,3.85
2023-03-04T08:50:08.053Z,3.88
2023-03-04T08:51:11.697Z,3.92
2023-03-04T08:52:13.355Z,3.96
2023-03-04T08:53:16.448Z,4.01
2023-03-04T08:54:19.450Z,4.06
2023-03-04T08:55:21.160Z,4.13
2023-03-04T08:56:23.913Z,4.16
2023-03-04T08:57:27.218Z,4.21
2023-03-04T08:58:29.978Z,4.23
2023-03-04T08:59:32.677Z,4.24
2023-03-04T09:00:36.766Z,4.25
2023-03-04T09:01:39.459Z,4.23
2023-03-04T09:02:41.276Z,4.21
2023-03-04T09:03:44.194Z,4.18
2023-03-04T09:04:46.964Z,4.16
2023-03-04T09:05:49.381Z,4.16
2023-03-04T09:06:54.018Z,4.16
2023-03-04T09:07:55.906Z,4.21
2023-03-04T09:08:58.612Z,4.26
2023-03-04T09:10:00.372Z,4.27
2023-03-04T09:11:03.706Z,4.25
2023-03-04T09:12:05.706Z,4.23
2023-03-04T09:13:11.361Z,4.25
2023-03-04T09:14:14.079Z,4.27
2023-03-04T09:15:15.758Z,4.30
2023-03-04T09:16:18.800Z,4.34
2023-03-04T09:17:20.515Z,4.37
2023-03-04T09:18:24.861Z,4.41
2023-03-04T09:19:30.359Z,4.46
2023-03-04T09:20:33.778Z,4.51
2023-03-04T09:21:35.442Z,4.53
2023-03-04T09:22:38.491Z,4.57
2023-03-04T09:23:40.264Z,4.59
2023-03-04T09:24:42.908Z,4.58
2023-03-04T09:25:46.508Z,4.58
2023-03-04T09:26:50.422Z,4.63
2023-03-04T09:27:53.104Z,4.66
2023-03-04T09:28:58.542Z,4.63
2023-03-04T09:30:00.267Z,4.64
2023-03-04T09:31:03.003Z,4.66
2023-03-04T09:32:05.305Z,4.69
2023-03-04T09:33:08.019Z,4.73
2023-03-04T09:34:10.931Z,4.80
2023-03-04T09:35:13.649Z,4.84
2023-03-04T09:36:15.877Z,4.88
2023-03-04T09:37:18.640Z,4.91
2023-03-04T09:38:21.341Z,4.95
2023-03-04T09:39:23.145Z,5.01
2023-03-04T09:40:28.564Z,5.04
2023-03-04T09:41:36.529Z,5.07
2023-03-04T09:42:45.789Z,5.11
2023-03-04T09:43:49.407Z,5.09
2023-03-04T09:44:54.349Z,5.04
2023-03-04T09:45:59.007Z,5.01
2023-03-04T09:47:02.845Z,5.00
2023-03-04T09:48:07.231Z,5.02
2023-03-04T09:49:11.874Z,5.04
2023-03-04T09:50:13.664Z,5.03
2023-03-04T09:51:21.807Z,5.04
2023-03-04T09:52:35.122Z,5.06
2023-03-04T09:53:42.071Z,5.08
2023-03-04T09:54:59.432Z,5.11
2023-03-04T09:56:02.809Z,5.17
2023-03-04T09:57:19.060Z,5.16
2023-03-04T09:58:29.799Z,5.15
2023-03-04T09:59:36.901Z,5.15
2023-03-04T10:00:44.758Z,5.11
2023-03-04T10:01:50.434Z,5.06
2023-03-04T10:03:06.875Z,5.06
2023-03-04T10:04:14.031Z,5.02
2023-03-04T10:05:21.156Z,5.01
2023-03-04T10:06:23.338Z,4.97
2023-03-04T10:07:29.438Z,5.01
2023-03-04T10:08:36.797Z,5.03
2023-03-04T10:09:45.267Z,5.07
2023-03-04T10:10:48.099Z,5.11
2023-03-04T10:11:59.653Z,5.10
2023-03-04T10:13:02.164Z,5.14
2023-03-04T10:14:14.499Z,5.16
2023-03-04T10:15:28.887Z,5.19
2023-03-04T10:16:37.594Z,5.16
2023-03-04T10:17:42.493Z,5.20
2023-03-04T10:18:48.554Z,5.23
2023-03-04T10:19:57.216Z,5.23
2023-03-04T10:21:03.218Z,5.17
2023-03-04T10:22:16.445Z,5.17
2023-03-04T10:23:23.101Z,5.09
2023-03-04T10:24:28.734Z,5.09
2023-03-04T10:25:33.374Z,5.07
2023-03-04T10:26:35.108Z,5.07
2023-03-04T10:27:37.934Z,5.05
2023-03-04T10:28:39.961Z,5.05
2023-03-04T10:29:42.659Z,5.08
2023-03-04T10:30:51.940Z,5.07
2023-03-04T10:31:56.487Z,5.07
2023-03-04T10:32:59.328Z,5.05
2023-03-04T10:34:03.810Z,5.04
2023-03-04T10:35:11.924Z,5.01
2023-03-04T10:36:28.494Z,4.99
2023-03-04T10:37:45.383Z,4.98
2023-03-04T10:38:47.031Z,4.97
2023-03-04T10:39:51.238Z,4.96
2023-03-04T10:40:52.977Z,4.95
2023-03-04T10:41:58.448Z,4.97
2023-03-04T10:43:00.243Z,4.79
2023-03-04T10:44:04.869Z,4.83
2023-03-04T10:45:21.291Z,4.82
2023-03-04T10:46:25.282Z,4.78
2023-03-04T10:47:31.395Z,4.82
2023-03-04T10:48:33.239Z,4.88
2023-03-04T10:49:51.906Z,4.94
2023-03-04T10:50:53.802Z,5.02
2023-03-04T10:52:03.180Z,5.05
2023-03-04T10:53:05.946Z,5.08
2023-03-04T10:54:11.191Z,5.10
2023-03-04T10:55:18.276Z,5.04
2023-03-04T10:56:45.452Z,5.11
2023-03-04T10:57:50.453Z,5.11
2023-03-04T10:58:52.110Z,5.07
2023-03-04T10:59:57.659Z,5.01
2023-03-04T11:01:02.639Z,5.01
2023-03-04T11:02:16.496Z,4.99
2023-03-04T11:03:34.136Z,4.98
2023-03-04T11:04:35.887Z,5.02
2023-03-04T11:05:38.591Z,5.01
2023-03-04T11:06:41.152Z,4.98
2023-03-04T11:07:55.649Z,5.00
2023-03-04T11:09:00.824Z,4.96
2023-03-04T11:10:09.086Z,4.99
2023-03-04T11:11:26.145Z,5.02
2023-03-04T11:12:34.423Z,5.01
2023-03-04T11:13:37.313Z,4.94
2023-03-04T11:14:44.310Z,4.94
2023-03-04T11:15:51.658Z,4.95
2023-03-04T11:16:56.690Z,4.94
2023-03-04T11:18:02.202Z,4.96
2023-03-04T11:19:11.504Z,4.95
2023-03-04T11:20:18.070Z,4.90
2023-03-04T11:21:22.866Z,4.92
2023-03-04T11:22:26.797Z,4.89
2023-03-04T11:23:34.121Z,4.92
2023-03-04T11:24:38.624Z,4.93
2023-03-04T11:25:43.326Z,4.95
2023-03-04T11:26:47.902Z,4.93
2023-03-04T11:27:52.687Z,4.95
2023-03-04T11:28:58.041Z,4.92
2023-03-04T11:30:09.935Z,4.90
2023-03-04T11:31:15.740Z,4.91
2023-03-04T11:32:21.100Z,4.89
2023-03-04T11:33:29.146Z,4.89
2023-03-04T11:34:38.267Z,4.86
2023-03-04T11:35:47.204Z,4.85
2023-03-04T11:36:57.110Z,4.83
2023-03-04T11:38:04.595Z,4.80
2023-03-04T11:39:15.432Z,4.82
2023-03-04T11:40:24.009Z,4.83
2023-03-04T11:41:32.060Z,4.88
2023-03-04T11:42:37.526Z,4.91
2023-03-04T11:43:41.458Z,4.93
2023-03-04T11:44:43.223Z,4.95
2023-03-04T11:46:13.732Z,5.00
2023-03-04T11:47:26.123Z,4.97
2023-03-04T11:48:38.387Z,4.98
2023-03-04T11:49:58.584Z,4.94
2023-03-04T11:51:05.599Z,4.91
2023-03-04T11:52:13.313Z,4.92
2023-03-04T11:53:30.102Z,4.91
2023-03-04T11:54:37.152Z,4.89
2023-03-04T11:55:43.196Z,4.86
2023-03-04T11:56:47.198Z,4.90
2023-03-04T11:57:56.644Z,4.90
2023-03-04T11:59:27.893Z,4.93
2023-03-04T12:00:37.002Z,4.95
2023-03-04T12:01:44.812Z,4.95
2023-03-04T12:02:52.801Z,4.98
2023-03-04T12:04:19.864Z,5.00
2023-03-04T12:05:30.255Z,5.03
2023-03-04T12:06:37.095Z,5.02
2023-03-04T12:07:47.148Z,5.02
2023-03-04T12:08:55.935Z,4.97
2023-03-04T12:10:05.619Z,4.94
2023-03-04T12:11:13.877Z,4.91
2023-03-04T12:12:26.852Z,4.87
2023-03-04T12:13:46.699Z,4.86
2023-03-04T12:14:52.428Z,4.83
2023-03-04T12:16:01.617Z,4.84
2023-03-04T12:17:19.135Z,4.81
2023-03-04T12:18:30.662Z,4.81
2023-03-04T12:19:41.408Z,4.75
2023-03-04T12:21:13.159Z,4.79
2023-03-04T12:22:27.127Z,4.75
2023-03-04T12:24:06.522Z,4.74
2023-03-04T12:25:39.468Z,4.71
2023-03-04T12:26:45.095Z,4.74
2023-03-04T12:27:55.875Z,4.71
2023-03-04T12:29:00.940Z,4.75
2023-03-04T12:30:07.616Z,4.77
2023-03-04T12:31:35.146Z,4.81
2023-03-04T12:32:42.142Z,4.81
2023-03-04T12:33:55.494Z,4.85
2023-03-04T12:35:12.887Z,4.84
2023-03-04T12:36:21.966Z,4.89
2023-03-04T12:37:41.834Z,4.90
2023-03-04T12:39:03.133Z,4.89
2023-03-04T12:40:39.885Z,4.92
2023-03-04T12:41:45.761Z,4.95
2023-03-04T12:43:12.164Z,4.95
2023-03-04T12:44:19.519Z,4.96
2023-03-04T12:45:26.717Z,5.02
2023-03-04T12:46:39.245Z,5.08
2023-03-04T12:47:48.675Z,5.11
2023-03-04T12:49:01.132Z,5.14
2023-03-04T12:50:28.309Z,5.12
2023-03-04T12:51:37.476Z,5.11
2023-03-04T12:52:45.103Z,5.11
2023-03-04T12:53:56.588Z,5.10
2023-03-04T12:55:01.929Z,5.13
2023-03-04T12:56:08.688Z,5.15
2023-03-04T12:57:15.283Z,5.16
2023-03-04T12:58:19.752Z,5.16
2023-03-04T12:59:23.692Z,5.15
2023-03-04T13:00:35.791Z,5.15
2023-03-04T13:01:41.330Z,5.14
2023-03-04T13:02:56.527Z,5.17
2023-03-04T13:04:02.749Z,5.21
2023-03-04T13:05:20.970Z,5.23
2023-03-04T13:06:36.637Z,5.21
2023-03-04T13:07:44.187Z,5.21
2023-03-04T13:08:55.141Z,5.21
2023-03-04T13:09:59.582Z,5.22
2023-03-04T13:11:03.569Z,5.24
2023-03-04T13:12:15.684Z,5.25
2023-03-04T13:13:40.229Z,5.28
2023-03-04T13:15:21.374Z,5.28
2023-03-04T13:16:35.922Z,5.33
2023-03-04T13:17:43.076Z,5.32
2023-03-04T13:18:46.373Z,5.40
2023-03-04T13:19:52.529Z,5.44
2023-03-04T13:21:17.825Z,5.49
2023-03-04T13:22:34.800Z,5.59
2023-03-04T13:23:37.481Z,5.64
2023-03-04T13:24:44.814Z,5.68
2023-03-04T13:25:48.190Z,5.73
2023-03-04T13:26:50.049Z,5.81
2023-03-04T13:28:08.010Z,5.91
2023-03-04T13:29:32.770Z,5.89
2023-03-04T13:30:43.072Z,5.90
2023-03-04T13:31:59.915Z,5.88
2023-03-04T13:33:42.107Z,5.79
2023-03-04T13:34:55.260Z,5.82
2023-03-04T13:36:01.988Z,5.86
2023-03-04T13:37:11.308Z,5.90
2023-03-04T13:38:22.575Z,5.94
2023-03-04T13:39:35.551Z,5.98
2023-03-04T13:40:38.082Z,5.98
2023-03-04T13:41:48.291Z,5.98
2023-03-04T13:42:51.304Z,5.92
2023-03-04T13:43:54.442Z,5.92
2023-03-04T13:45:00.830Z,5.95
2023-03-04T13:46:29.756Z,5.98
2023-03-04T13:47:41.572Z,6.03
2023-03-04T13:48:44.403Z,6.00
2023-03-04T13:49:46.191Z,6.02
2023-03-04T13:50:51.029Z,6.07
2023-03-04T13:51:53.187Z,6.11
2023-03-04T13:52:55.847Z,6.11
2023-03-04T13:54:09.028Z,6.13
2023-03-04T13:55:33.787Z,6.13
2023-03-04T13:56:37.850Z,6.16
2023-03-04T13:57:48.799Z,6.22
2023-03-04T13:58:52.963Z,6.24
2023-03-04T13:59:56.941Z,6.27
2023-03-04T14:00:58.705Z,6.32
2023-03-04T14:02:03.649Z,6.34
2023-03-04T14:03:14.727Z,6.37
2023-03-04T14:04:19.617Z,6.35
2023-03-04T14:05:22.553Z,6.32
2023-03-04T14:06:26.917Z,6.34
2023-03-04T14:07:30.884Z,6.33
2023-03-04T14:08:32.689Z,6.33
2023-03-04T14:09:36.146Z,6.30
2023-03-04T14:10:37.904Z,6.23
2023-03-04T14:11:42.349Z,6.18
2023-03-04T14:12:45.658Z,6.08
2023-03-04T14:13:48.362Z,5.98
2023-03-04T14:14:52.350Z,5.89
2023-03-04T14:15:56.203Z,5.78
2023-03-04T14:17:01.714Z,5.75
2023-03-04T14:18:06.155Z,5.74
2023-03-04T14:19:15.301Z,5.73